createdAt,value
2023-04-16T00:00:52.634Z,5.75
2023-04-16T00:02:54.515Z,5.90
2023-04-16T00:04:56.873Z,5.57
2023-04-16T00:06:58.553Z,7.13
2023-04-16T00:09:00.293Z,6.78
2023-04-16T00:11:01.941Z,6.05
2023-04-16T00:13:03.650Z,6.88
2023-04-16T00:15:05.619Z,6.78
2023-04-16T00:17:07.357Z,7.35
2023-04-16T00:19:09.215Z,7.10
2023-04-16T00:21:11.256Z,6.65
2023-04-16T00:23:12.955Z,7.15
2023-04-16T00:25:14.792Z,6.85
2023-04-16T00:27:16.475Z,6.43
2023-04-16T00:29:18.239Z,6.13
2023-04-16T00:31:31.596Z,9.68
2023-04-16T00:33:33.322Z,6.35
2023-04-16T00:35:35.483Z,6.47
2023-04-16T00:37:37.153Z,6.80
2023-04-16T00:39:38.897Z,5.70
2023-04-16T00:41:41.222Z,6.25
2023-04-16T00:43:43.078Z,6.95
2023-04-16T00:45:44.732Z,7.32
2023-04-16T00:47:46.447Z,6.40
2023-04-16T00:49:48.247Z,6.40
2023-04-16T00:51:50.403Z,5.57
2023-04-16T00:53:52.629Z,6.15
2023-04-16T00:55:56.227Z,6.10
2023-04-16T00:57:57.927Z,5.65
2023-04-16T00:59:59.624Z,7.38
2023-04-16T01:02:01.757Z,6.57
2023-04-16T01:04:04.234Z,6.03
2023-04-16T01:06:07.488Z,5.60
2023-04-16T01:08:27.366Z,6.32
2023-04-16T01:10:28.985Z,6.50
2023-04-16T01:12:30.727Z,6.05
2023-04-16T01:14:36.394Z,4.50
2023-04-16T01:16:38.234Z,6.82
2023-04-16T01:18:40.017Z,5.68
2023-04-16T01:20:41.697Z,5.88
2023-04-16T01:22:43.296Z,6.13
2023-04-16T01:24:45.653Z,4.97
2023-04-16T01:26:47.298Z,6.65
2023-04-16T01:28:49.004Z,5.35
2023-04-16T01:30:50.772Z,6.00
2023-04-16T01:32:52.588Z,6.25
2023-04-16T01:34:54.464Z,5.63
2023-04-16T01:36:56.380Z,6.32
2023-04-16T01:38:58.076Z,5.18
2023-04-16T01:41:00.046Z,6.03
2023-04-16T01:43:01.864Z,5.75
2023-04-16T01:45:03.929Z,5.65
2023-04-16T01:47:05.616Z,6.80
2023-04-16T01:49:07.716Z,7.65
2023-04-16T01:51:10.183Z,6.55
2023-04-16T01:53:11.894Z,5.75
2023-04-16T01:55:13.776Z,5.45
2023-04-16T01:57:15.449Z,6.07
2023-04-16T01:59:20.631Z,7.80
2023-04-16T02:01:22.504Z,6.55
2023-04-16T02:03:25.012Z,5.93
2023-04-16T02:05:26.805Z,7.70
2023-04-16T02:07:28.673Z,7.70
2023-04-16T02:09:30.472Z,8.80
2023-04-16T02:11:32.228Z,8.10
2023-04-16T02:13:33.903Z,8.70
2023-04-16T02:15:35.599Z,8.00
2023-04-16T02:17:37.300Z,7.80
2023-04-16T02:19:38.986Z,7.95
2023-04-16T02:21:41.829Z,8.88
2023-04-16T02:23:47.631Z,8.35
2023-04-16T02:25:49.281Z,9.02
2023-04-16T02:27:51.149Z,7.13
2023-04-16T02:29:52.874Z,7.50
2023-04-16T02:31:54.715Z,8.98
2023-04-16T02:33:56.438Z,8.93
2023-04-16T02:35:58.117Z,7.07
2023-04-16T02:37:59.812Z,7.80
2023-04-16T02:40:01.821Z,8.15
2023-04-16T02:42:03.591Z,8.30
2023-04-16T02:44:05.673Z,8.13
2023-04-16T02:46:07.465Z,9.15
2023-04-16T02:48:09.799Z,9.63
2023-04-16T02:50:11.836Z,8.73
2023-04-16T02:52:15.550Z,7.97
2023-04-16T02:54:17.455Z,8.30
2023-04-16T02:56:19.081Z,7.82
2023-04-16T02:58:21.846Z,8.68
2023-04-16T03:00:23.649Z,9.60
2023-04-16T03:02:25.619Z,8.43
2023-04-16T03:04:27.430Z,8.65
2023-04-16T03:06:29.160Z,8.15
2023-04-16T03:08:30.829Z,9.55
2023-04-16T03:10:32.625Z,9.05
2023-04-16T03:12:34.415Z,9.70
2023-04-16T03:14:36.336Z,8.25
2023-04-16T03:16:38.119Z,8.27
2023-04-16T03:18:39.786Z,9.00
2023-04-16T03:20:41.432Z,8.00
2023-04-16T03:22:43.458Z,8.05
2023-04-16T03:24:45.207Z,9.15
2023-04-16T03:26:46.852Z,9.73
2023-04-16T03:28:48.586Z,9.35
2023-04-16T03:30:52.652Z,8.93
2023-04-16T03:32:54.424Z,7.90
2023-04-16T03:34:56.130Z,8.60
2023-04-16T03:36:57.767Z,8.30
2023-04-16T03:38:59.469Z,8.93
2023-04-16T03:41:01.092Z,8.40
2023-04-16T03:43:02.789Z,8.70
2023-04-16T03:45:04.908Z,8.77
2023-04-16T03:47:06.661Z,9.27
2023-04-16T03:49:08.603Z,9.50
2023-04-16T03:51:10.561Z,9.43
2023-04-16T03:53:12.232Z,8.90
2023-04-16T03:55:14.083Z,8.65
2023-04-16T03:57:15.846Z,9.25
2023-04-16T03:59:17.858Z,10.02
2023-04-16T04:01:19.570Z,11.60
2023-04-16T04:03:21.412Z,10.43
2023-04-16T04:05:23.313Z,8.30
2023-04-16T04:07:25.005Z,9.30
2023-04-16T04:09:26.758Z,9.40
2023-04-16T04:11:28.431Z,9.30
2023-04-16T04:13:30.074Z,9.70
2023-04-16T04:15:32.250Z,10.07
2023-04-16T04:17:33.972Z,10.00
2023-04-16T04:19:36.267Z,8.95
2023-04-16T04:21:38.805Z,10.85
2023-04-16T04:23:41.763Z,10.02
2023-04-16T04:25:44.151Z,10.95
2023-04-16T04:27:45.927Z,11.25
2023-04-16T04:29:47.605Z,9.77
2023-04-16T04:31:49.358Z,9.88
2023-04-16T04:33:51.179Z,11.07
2023-04-16T04:35:53.372Z,9.48
2023-04-16T04:37:55.087Z,11.82
2023-04-16T04:39:56.782Z,11.65
2023-04-16T04:41:58.512Z,10.82
2023-04-16T04:44:00.194Z,10.05
2023-04-16T04:46:01.987Z,11.45
2023-04-16T04:48:03.876Z,10.82
2023-04-16T04:50:06.454Z,10.35
2023-04-16T04:52:08.492Z,10.00
2023-04-16T04:54:10.267Z,10.45
2023-04-16T04:56:13.089Z,10.23
2023-04-16T04:58:14.974Z,12.88
2023-04-16T05:00:16.728Z,10.52
2023-04-16T05:02:18.470Z,10.52
2023-04-16T05:04:20.251Z,10.45
2023-04-16T05:06:22.098Z,10.13
2023-04-16T05:08:23.785Z,10.48
2023-04-16T05:10:25.537Z,9.30
2023-04-16T05:12:27.261Z,9.38
2023-04-16T05:14:29.042Z,10.02
2023-04-16T05:16:30.959Z,9.88
2023-04-16T05:18:33.516Z,10.02
2023-04-16T05:20:35.347Z,9.77
2023-04-16T05:22:37.181Z,10.52
2023-04-16T05:24:38.972Z,10.25
2023-04-16T05:26:40.612Z,9.80
2023-04-16T05:28:42.281Z,10.73
2023-04-16T05:30:43.936Z,9.43
2023-04-16T05:32:45.881Z,10.00
2023-04-16T05:34:47.650Z,9.65
2023-04-16T05:36:49.349Z,9.18
2023-04-16T05:38:51.026Z,11.35
2023-04-16T05:40:52.757Z,9.13
2023-04-16T05:42:54.435Z,9.18
2023-04-16T05:44:56.373Z,10.00
2023-04-16T05:46:58.073Z,10.50
2023-04-16T05:48:59.921Z,9.68
2023-04-16T05:51:02.786Z,11.15
2023-04-16T05:53:06.801Z,10.00
2023-04-16T05:55:09.077Z,9.95
2023-04-16T05:57:10.869Z,10.73
2023-04-16T05:59:12.572Z,11.25
2023-04-16T06:01:14.274Z,9.82
2023-04-16T06:03:16.080Z,9.70
2023-04-16T06:05:17.893Z,11.50
2023-04-16T06:07:19.560Z,11.15
2023-04-16T06:09:21.311Z,10.45
2023-04-16T06:11:23.221Z,11.13
2023-04-16T06:13:25.102Z,11.65
2023-04-16T06:15:26.828Z,10.57
2023-04-16T06:17:28.515Z,11.10
2023-04-16T06:19:30.322Z,9.98
2023-04-16T06:21:32.282Z,9.70
2023-04-16T06:23:34.077Z,12.30
2023-04-16T06:25:35.762Z,10.38
2023-04-16T06:27:37.516Z,11.32
2023-04-16T06:29:41.555Z,11.32
2023-04-16T06:31:43.648Z,10.25
2023-04-16T06:33:45.367Z,11.98
2023-04-16T06:35:47.119Z,11.68
2023-04-16T06:37:48.834Z,10.63
2023-04-16T06:39:50.581Z,10.80
2023-04-16T06:41:52.344Z,10.32
2023-04-16T06:43:54.038Z,10.32
2023-04-16T06:45:55.757Z,11.38
2023-04-16T06:47:59.106Z,9.85
2023-04-16T06:50:00.922Z,11.40
2023-04-16T06:52:05.176Z,10.55
2023-04-16T06:54:07.624Z,12.48
2023-04-16T06:56:09.338Z,11.18
2023-04-16T06:58:11.189Z,10.25
2023-04-16T07:00:13.274Z,10.52
2023-04-16T07:02:15.044Z,12.20
2023-04-16T07:04:16.850Z,10.88
2023-04-16T07:06:18.737Z,9.38
2023-04-16T07:08:20.670Z,10.02
2023-04-16T07:10:22.350Z,10.50
2023-04-16T07:12:24.007Z,9.13
2023-04-16T07:14:25.734Z,9.90
2023-04-16T07:16:27.861Z,10.13
2023-04-16T07:18:29.675Z,9.52
2023-04-16T07:20:31.341Z,9.98
2023-04-16T07:22:33.020Z,10.15
2023-04-16T07:24:35.807Z,9.45
2023-04-16T07:26:37.765Z,9.75
2023-04-16T07:28:39.501Z,8.77
2023-04-16T07:30:41.178Z,7.82
2023-04-16T07:32:42.888Z,9.10
2023-04-16T07:34:44.682Z,8.57
2023-04-16T07:36:46.369Z,9.45
2023-04-16T07:38:48.067Z,10.30
2023-04-16T07:40:49.833Z,8.48
2023-04-16T07:42:51.593Z,9.35
2023-04-16T07:44:53.463Z,9.82
2023-04-16T07:46:55.208Z,9.07
2023-04-16T07:48:56.934Z,8.63
2023-04-16T07:50:58.733Z,8.73
2023-04-16T07:53:00.416Z,7.88
2023-04-16T07:55:02.157Z,9.73
2023-04-16T07:57:03.764Z,9.70
2023-04-16T07:59:21.133Z,10.13
2023-04-16T08:01:24.155Z,8.52
2023-04-16T08:03:26.178Z,8.88
2023-04-16T08:05:28.147Z,9.27
2023-04-16T08:07:29.871Z,8.13
2023-04-16T08:09:31.987Z,8.30
2023-04-16T08:11:33.973Z,9.35
2023-04-16T08:13:36.151Z,8.05
2023-04-16T08:15:40.935Z,8.35
2023-04-16T08:17:42.746Z,8.35
2023-04-16T08:19:47.641Z,13.00
2023-04-16T08:21:49.641Z,10.00
2023-04-16T08:23:51.468Z,8.18
2023-04-16T08:25:53.203Z,8.23
2023-04-16T08:27:55.106Z,8.98
2023-04-16T08:29:56.934Z,9.07
2023-04-16T08:31:59.660Z,7.50
2023-04-16T08:34:04.546Z,9.25
2023-04-16T08:36:06.405Z,9.15
2023-04-16T08:38:08.102Z,8.13
2023-04-16T08:40:10.067Z,8.90
2023-04-16T08:42:23.102Z,8.63
2023-04-16T08:44:27.607Z,9.55
2023-04-16T08:46:30.200Z,7.82
2023-04-16T08:48:34.197Z,9.57
2023-04-16T08:50:36.455Z,9.82
2023-04-16T08:52:40.285Z,8.05
2023-04-16T08:54:58.552Z,8.95
2023-04-16T08:57:00.642Z,9.05
2023-04-16T08:59:05.569Z,9.18
2023-04-16T09:01:09.734Z,8.68
2023-04-16T09:03:11.667Z,8.77
2023-04-16T09:05:21.606Z,8.95
2023-04-16T09:07:24.428Z,8.68
2023-04-16T09:09:26.798Z,9.57
2023-04-16T09:11:28.532Z,7.30
2023-04-16T09:13:31.944Z,8.65
2023-04-16T09:15:35.208Z,8.80
2023-04-16T09:17:37.047Z,7.13
2023-04-16T09:19:38.848Z,8.20
2023-04-16T09:21:41.937Z,8.32
2023-04-16T09:23:44.306Z,8.30
2023-04-16T09:25:46.148Z,7.82
2023-04-16T09:27:50.894Z,9.13
2023-04-16T09:29:52.638Z,8.88
2023-04-16T09:32:04.905Z,8.38
2023-04-16T09:34:08.227Z,10.40
2023-04-16T09:36:10.802Z,8.05
2023-04-16T09:38:12.463Z,7.93
2023-04-16T09:40:14.266Z,8.75
2023-04-16T09:42:15.945Z,9.18
2023-04-16T09:44:17.632Z,10.10
2023-04-16T09:46:19.384Z,10.35
2023-04-16T09:48:34.272Z,10.15
2023-04-16T09:50:35.917Z,8.63
2023-04-16T09:52:40.908Z,10.25
2023-04-16T09:54:53.419Z,9.15
2023-04-16T09:56:56.906Z,9.35
2023-04-16T09:59:00.457Z,10.70
2023-04-16T10:01:12.980Z,8.23
2023-04-16T10:03:14.928Z,7.93
2023-04-16T10:05:18.739Z,8.00
2023-04-16T10:07:38.546Z,9.57
2023-04-16T10:09:50.918Z,9.07
2023-04-16T10:11:52.679Z,8.38
2023-04-16T10:13:54.405Z,8.55
2023-04-16T10:15:57.352Z,9.02
2023-04-16T10:18:00.329Z,8.20
2023-04-16T10:20:07.024Z,9.43
2023-04-16T10:22:09.058Z,9.95
2023-04-16T10:24:10.918Z,9.18
2023-04-16T10:26:12.743Z,12.82
2023-04-16T10:28:15.451Z,10.18
2023-04-16T10:30:18.097Z,10.73
2023-04-16T10:32:21.897Z,8.88
2023-04-16T10:34:24.893Z,8.48
2023-04-16T10:36:26.719Z,9.13
2023-04-16T10:38:28.589Z,10.02
2023-04-16T10:40:30.368Z,10.38
2023-04-16T10:42:32.155Z,10.85
2023-04-16T10:44:33.911Z,10.43
2023-04-16T10:46:40.705Z,10.18
2023-04-16T10:48:49.702Z,10.18
2023-04-16T10:50:57.544Z,11.35
2023-04-16T10:53:28.963Z,9.68
2023-04-16T10:55:30.709Z,9.90
2023-04-16T10:57:32.354Z,11.27
2023-04-16T10:59:36.208Z,10.68
2023-04-16T11:01:41.871Z,9.68
2023-04-16T11:03:44.867Z,9.93
2023-04-16T11:05:49.560Z,9.68
2023-04-16T11:07:51.255Z,11.85
2023-04-16T11:10:00.095Z,10.70
2023-04-16T11:12:03.003Z,13.20
2023-04-16T11:14:04.936Z,11.02
2023-04-16T11:16:06.858Z,10.13
2023-04-16T11:18:11.452Z,11.32
2023-04-16T11:20:20.528Z,10.35
2023-04-16T11:22:22.934Z,10.57
2023-04-16T11:24:26.223Z,10.45
2023-04-16T11:26:28.951Z,11.25
2023-04-16T11:28:34.688Z,10.20
2023-04-16T11:30:38.000Z,11.25
2023-04-16T11:32:40.065Z,11.38
2023-04-16T11:34:46.054Z,18.23
2023-04-16T11:36:49.559Z,9.43
2023-04-16T11:38:51.523Z,10.98
2023-04-16T11:40:54.229Z,11.88
2023-04-16T11:42:56.214Z,11.10
2023-04-16T11:45:02.361Z,11.10
2023-04-16T11:47:07.759Z,10.20
2023-04-16T11:49:10.052Z,10.48
2023-04-16T11:51:11.908Z,10.93
2023-04-16T11:53:13.616Z,11.68
2023-04-16T11:55:15.667Z,12.30
2023-04-16T11:57:28.187Z,11.05
2023-04-16T11:59:29.992Z,10.00
2023-04-16T12:01:31.663Z,11.73
2023-04-16T12:03:46.300Z,12.25
2023-04-16T12:05:48.424Z,11.75
2023-04-16T12:07:50.149Z,14.45
2023-04-16T12:09:51.920Z,11.48
2023-04-16T12:11:53.868Z,11.65
2023-04-16T12:14:11.923Z,11.35
2023-04-16T12:16:21.194Z,10.93
2023-04-16T12:18:27.049Z,10.95
2023-04-16T12:20:40.339Z,10.82
2023-04-16T12:22:49.801Z,10.45
2023-04-16T12:24:57.492Z,11.50
2023-04-16T12:27:03.365Z,11.60
2023-04-16T12:29:18.807Z,10.93
2023-04-16T12:31:37.143Z,11.10
2023-04-16T12:33:39.055Z,11.93
2023-04-16T12:35:43.529Z,10.77
2023-04-16T12:37:45.550Z,11.38
2023-04-16T12:39:48.139Z,12.98
2023-04-16T12:41:49.918Z,11.73
2023-04-16T12:43:51.688Z,11.52
2023-04-16T12:45:53.573Z,11.60
2023-04-16T12:47:56.007Z,10.13
2023-04-16T12:49:58.165Z,11.10
2023-04-16T12:51:59.883Z,12.07
2023-04-16T12:54:02.918Z,12.90
2023-04-16T12:56:04.956Z,13.27
2023-04-16T12:58:06.933Z,12.43
2023-04-16T13:00:10.851Z,12.45
2023-04-16T13:02:13.179Z,13.10
2023-04-16T13:04:15.359Z,13.07
2023-04-16T13:06:17.859Z,11.93
2023-04-16T13:08:19.592Z,12.82
2023-04-16T13:10:22.226Z,13.38
2023-04-16T13:12:23.948Z,12.48
2023-04-16T13:14:26.401Z,12.55
2023-04-16T13:16:28.191Z,11.45
2023-04-16T13:18:30.026Z,10.70
2023-04-16T13:20:31.732Z,12.93
2023-04-16T13:22:33.790Z,11.85
2023-04-16T13:24:35.583Z,11.98
2023-04-16T13:26:37.365Z,12.00
2023-04-16T13:28:39.010Z,11.57
2023-04-16T13:30:41.221Z,13.18
2023-04-16T13:32:42.968Z,11.32
2023-04-16T13:34:44.813Z,12.48
2023-04-16T13:36:46.625Z,11.88
2023-04-16T13:38:48.288Z,13.63
2023-04-16T13:40:50.000Z,13.63
2023-04-16T13:42:51.738Z,13.20
2023-04-16T13:44:55.079Z,13.30
2023-04-16T13:46:56.873Z,13.82
2023-04-16T13:48:58.684Z,14.85
2023-04-16T13:51:00.561Z,14.38
2023-04-16T13:53:02.388Z,14.30
2023-04-16T13:55:04.458Z,13.93
2023-04-16T13:57:06.689Z,14.77
2023-04-16T13:59:08.696Z,13.30
2023-04-16T14:01:10.623Z,15.55
2023-04-16T14:03:12.417Z,14.93
2023-04-16T14:05:14.855Z,16.60
2023-04-16T14:07:17.238Z,17.63
2023-04-16T14:09:18.901Z,15.63
2023-04-16T14:11:20.713Z,14.43
2023-04-16T14:13:22.439Z,15.50
2023-04-16T14:15:26.899Z,17.02
2023-04-16T14:17:28.613Z,16.27
2023-04-16T14:19:30.620Z,17.85
2023-04-16T14:21:32.341Z,18.65
2023-04-16T14:23:34.206Z,17.92
2023-04-16T14:25:35.950Z,16.15
2023-04-16T14:27:37.656Z,16.67
2023-04-16T14:29:39.479Z,17.08
2023-04-16T14:31:41.689Z,16.58
2023-04-16T14:33:43.709Z,16.23
2023-04-16T14:35:45.465Z,17.23
2023-04-16T14:37:47.249Z,17.30
2023-04-16T14:39:49.204Z,17.95
2023-04-16T14:41:50.881Z,19.08
2023-04-16T14:43:52.624Z,17.23
2023-04-16T14:45:54.436Z,17.17
2023-04-16T14:47:56.316Z,16.73
2023-04-16T14:49:58.017Z,19.23
2023-04-16T14:52:02.155Z,17.42
2023-04-16T14:54:04.033Z,17.17
2023-04-16T14:56:06.406Z,19.83
2023-04-16T14:58:08.116Z,18.77
2023-04-16T15:00:10.970Z,17.50
2023-04-16T15:02:12.825Z,17.85
2023-04-16T15:04:14.747Z,18.50
2023-04-16T15:06:19.585Z,18.30
2023-04-16T15:08:24.736Z,18.52
2023-04-16T15:10:26.464Z,15.93
2023-04-16T15:12:28.157Z,17.50
2023-04-16T15:14:30.162Z,16.52
2023-04-16T15:16:31.892Z,17.45
2023-04-16T15:18:33.649Z,17.63
2023-04-16T15:20:35.914Z,16.55
2023-04-16T15:22:38.219Z,16.88
2023-04-16T15:24:39.943Z,16.35
2023-04-16T15:26:41.642Z,16.70
2023-04-16T15:28:43.317Z,15.98
2023-04-16T15:30:45.093Z,15.15
2023-04-16T15:32:47.149Z,15.93
2023-04-16T15:34:48.848Z,15.32
2023-04-16T15:36:50.634Z,15.88
2023-04-16T15:38:52.499Z,14.95
2023-04-16T15:40:54.199Z,15.90
2023-04-16T15:42:56.424Z,16.15
2023-04-16T15:44:58.395Z,15.00
2023-04-16T15:47:00.570Z,13.52
2023-04-16T15:49:02.287Z,14.30
2023-04-16T15:51:04.147Z,13.20
2023-04-16T15:53:06.002Z,13.60
2023-04-16T15:55:08.223Z,12.70
2023-04-16T15:57:09.949Z,12.13
2023-04-16T15:59:11.836Z,11.90
2023-04-16T16:01:13.861Z,12.65
2023-04-16T16:03:17.587Z,14.50
2023-04-16T16:05:19.406Z,13.80
2023-04-16T16:07:21.686Z,13.52
2023-04-16T16:09:26.948Z,12.23
2023-04-16T16:11:28.718Z,12.25
2023-04-16T16:13:31.223Z,15.10
2023-04-16T16:15:33.096Z,12.65
2023-04-16T16:17:34.910Z,12.60
2023-04-16T16:19:36.794Z,13.50
2023-04-16T16:21:38.429Z,12.20
2023-04-16T16:23:40.186Z,12.55
2023-04-16T16:25:42.685Z,11.68
2023-04-16T16:27:44.679Z,12.85
2023-04-16T16:29:46.486Z,12.43
2023-04-16T16:31:48.193Z,11.45
2023-04-16T16:33:49.959Z,11.68
2023-04-16T16:35:52.873Z,11.25
2023-04-16T16:37:57.277Z,13.50
2023-04-16T16:39:59.031Z,11.77
2023-04-16T16:42:00.971Z,12.32
2023-04-16T16:44:02.746Z,12.68
2023-04-16T16:46:06.116Z,14.55
2023-04-16T16:48:08.337Z,13.45
2023-04-16T16:50:11.721Z,12.13
2023-04-16T16:52:13.435Z,13.30
2023-04-16T16:54:15.600Z,13.32
2023-04-16T16:56:17.416Z,13.27
2023-04-16T16:58:19.224Z,12.27
2023-04-16T17:00:21.942Z,12.80
2023-04-16T17:02:23.700Z,14.07
2023-04-16T17:04:25.661Z,12.25
2023-04-16T17:06:27.830Z,13.80
2023-04-16T17:08:29.639Z,12.60
2023-04-16T17:10:31.793Z,14.98
2023-04-16T17:12:33.534Z,12.30
2023-04-16T17:14:35.691Z,12.02
2023-04-16T17:16:37.429Z,13.55
2023-04-16T17:18:39.424Z,13.70
2023-04-16T17:20:41.101Z,13.48
2023-04-16T17:22:42.858Z,11.93
2023-04-16T17:24:44.519Z,12.23
2023-04-16T17:26:46.327Z,13.00
2023-04-16T17:28:48.126Z,13.85
2023-04-16T17:30:53.572Z,14.27
2023-04-16T17:32:55.471Z,14.32
2023-04-16T17:34:57.259Z,12.70
2023-04-16T17:36:58.974Z,13.20
2023-04-16T17:39:00.678Z,15.68
2023-04-16T17:41:02.383Z,13.95
2023-04-16T17:43:04.472Z,13.15
2023-04-16T17:45:06.930Z,14.50
2023-04-16T17:47:08.688Z,13.40
2023-04-16T17:49:10.532Z,14.20
2023-04-16T17:51:12.853Z,15.20
2023-04-16T17:53:14.552Z,13.57
2023-04-16T17:55:16.840Z,13.40
2023-04-16T17:57:18.529Z,15.32
2023-04-16T17:59:20.279Z,15.30
2023-04-16T18:01:21.949Z,15.15
2023-04-16T18:03:23.830Z,13.88
2023-04-16T18:05:26.311Z,14.05
2023-04-16T18:07:28.030Z,15.32
2023-04-16T18:09:30.685Z,14.82
2023-04-16T18:11:32.393Z,15.35
2023-04-16T18:13:34.955Z,14.70
2023-04-16T18:15:39.739Z,14.88
2023-04-16T18:17:41.512Z,14.20
2023-04-16T18:19:44.470Z,15.02
2023-04-16T18:21:46.670Z,14.38
2023-04-16T18:23:48.391Z,13.90
2023-04-16T18:25:50.110Z,15.68
2023-04-16T18:27:51.798Z,13.20
2023-04-16T18:29:54.773Z,15.38
2023-04-16T18:31:57.041Z,15.45
2023-04-16T18:33:58.910Z,16.00
2023-04-16T18:36:02.298Z,15.32
2023-04-16T18:38:03.966Z,15.05
2023-04-16T18:40:07.289Z,19.77
2023-04-16T18:42:09.003Z,13.45
2023-04-16T18:44:13.679Z,14.30
2023-04-16T18:46:15.991Z,15.38
2023-04-16T18:48:17.638Z,13.80
2023-04-16T18:50:19.367Z,15.32
2023-04-16T18:52:21.088Z,16.02
2023-04-16T18:54:25.454Z,15.55
2023-04-16T18:56:29.353Z,16.30
2023-04-16T18:58:31.285Z,18.95
2023-04-16T19:00:33.195Z,19.80
2023-04-16T19:02:35.145Z,22.83
2023-04-16T19:04:38.375Z,27.27
2023-04-16T19:06:40.190Z,34.28
2023-04-16T19:08:41.911Z,30.42
2023-04-16T19:10:43.599Z,30.25
2023-04-16T19:12:45.421Z,28.77
2023-04-16T19:14:47.158Z,31.20
2023-04-16T19:16:48.893Z,26.33
2023-04-16T19:18:50.925Z,28.30
2023-04-16T19:20:58.798Z,23.92
2023-04-16T19:23:00.646Z,20.38
2023-04-16T19:25:02.509Z,21.25
2023-04-16T19:27:04.256Z,20.08
2023-04-16T19:29:05.998Z,20.08
2023-04-16T19:31:08.469Z,18.70
2023-04-16T19:33:10.717Z,18.23
2023-04-16T19:35:12.746Z,18.30
2023-04-16T19:37:14.400Z,17.20
2023-04-16T19:39:16.129Z,18.33
2023-04-16T19:41:17.862Z,16.83
2023-04-16T19:43:19.616Z,16.02
2023-04-16T19:45:25.780Z,17.65
2023-04-16T19:47:27.838Z,16.23
2023-04-16T19:49:34.375Z,16.45
2023-04-16T19:51:36.329Z,16.17
2023-04-16T19:53:38.354Z,15.23
2023-04-16T19:55:41.312Z,15.82
2023-04-16T19:57:42.965Z,15.88
2023-04-16T19:59:44.729Z,16.80
2023-04-16T20:01:46.816Z,15.63
2023-04-16T20:03:48.552Z,16.83
2023-04-16T20:05:50.447Z,15.27
2023-04-16T20:07:54.958Z,14.95
2023-04-16T20:09:56.716Z,15.40
2023-04-16T20:11:58.420Z,15.20
2023-04-16T20:14:01.337Z,14.73
2023-04-16T20:16:03.785Z,16.65
2023-04-16T20:18:06.658Z,16.08
2023-04-16T20:20:10.373Z,17.08
2023-04-16T20:22:12.045Z,15.38
2023-04-16T20:24:15.545Z,15.48
2023-04-16T20:26:18.445Z,17.75
2023-04-16T20:28:21.625Z,15.07
2023-04-16T20:30:28.854Z,16.30
2023-04-16T20:32:31.103Z,17.67
2023-04-16T20:34:32.801Z,17.17
2023-04-16T20:36:34.743Z,14.50
2023-04-16T20:38:37.722Z,15.40
2023-04-16T20:40:39.886Z,15.05
2023-04-16T20:42:46.393Z,14.32
2023-04-16T20:44:56.633Z,14.20
2023-04-16T20:46:59.592Z,14.52
2023-04-16T20:49:01.388Z,15.48
2023-04-16T20:51:04.406Z,15.65
2023-04-16T20:53:06.152Z,17.85
2023-04-16T20:55:08.640Z,16.45
2023-04-16T20:57:10.329Z,16.05
2023-04-16T20:59:13.439Z,18.10
2023-04-16T21:01:15.204Z,16.15
2023-04-16T21:03:17.269Z,14.40
2023-04-16T21:05:21.458Z,13.27
2023-04-16T21:07:23.148Z,15.10
2023-04-16T21:09:24.900Z,15.00
2023-04-16T21:11:27.200Z,15.68
2023-04-16T21:13:28.925Z,14.57
2023-04-16T21:15:31.089Z,14.50
2023-04-16T21:17:32.870Z,13.57
2023-04-16T21:19:34.610Z,13.88
2023-04-16T21:21:38.240Z,13.55
2023-04-16T21:23:39.953Z,13.63
2023-04-16T21:25:41.699Z,11.23
2023-04-16T21:27:43.369Z,13.45
2023-04-16T21:29:45.075Z,12.50
2023-04-16T21:31:46.926Z,12.05
2023-04-16T21:33:48.717Z,12.30
2023-04-16T21:35:53.611Z,11.65
2023-04-16T21:37:55.403Z,13.68
2023-04-16T21:40:00.258Z,12.30
2023-04-16T21:42:02.289Z,10.85
2023-04-16T21:44:03.997Z,11.98
2023-04-16T21:46:05.859Z,9.98
2023-04-16T21:48:07.806Z,12.10
2023-04-16T21:50:09.949Z,12.90
2023-04-16T21:52:14.196Z,13.98
2023-04-16T21:54:18.618Z,11.88
2023-04-16T21:56:20.349Z,12.57
2023-04-16T21:58:22.089Z,12.73
2023-04-16T22:00:23.760Z,15.77
2023-04-16T22:02:25.597Z,12.55
2023-04-16T22:04:37.161Z,13.60
2023-04-16T22:06:38.907Z,13.15
2023-04-16T22:08:40.603Z,13.88
2023-04-16T22:10:42.265Z,14.65
2023-04-16T22:12:45.996Z,14.93
2023-04-16T22:14:59.579Z,13.35
2023-04-16T22:17:04.945Z,13.95
2023-04-16T22:19:07.464Z,15.65
2023-04-16T22:21:09.142Z,14.70
2023-04-16T22:23:10.906Z,15.40
2023-04-16T22:25:12.756Z,15.57
2023-04-16T22:27:14.451Z,16.55
2023-04-16T22:29:16.237Z,15.95
2023-04-16T22:31:17.951Z,14.50
2023-04-16T22:33:19.707Z,14.40
2023-04-16T22:35:21.455Z,16.33
2023-04-16T22:37:23.125Z,14.98
2023-04-16T22:39:24.912Z,14.18
2023-04-16T22:41:27.218Z,17.38
2023-04-16T22:43:28.940Z,15.23
2023-04-16T22:45:30.684Z,16.75
2023-04-16T22:47:32.453Z,16.02
2023-04-16T22:49:34.183Z,16.85
2023-04-16T22:51:35.882Z,14.85
2023-04-16T22:53:37.606Z,15.07
2023-04-16T22:55:39.291Z,14.88
2023-04-16T22:57:41.045Z,13.50
2023-04-16T22:59:42.723Z,13.55
2023-04-16T23:01:44.436Z,13.52
2023-04-16T23:03:46.448Z,15.30
2023-04-16T23:05:49.188Z,15.43
2023-04-16T23:07:51.014Z,13.25
2023-04-16T23:09:52.653Z,13.77
2023-04-16T23:11:54.316Z,13.60
2023-04-16T23:13:56.321Z,13.00
2023-04-16T23:15:58.324Z,14.05
2023-04-16T23:18:00.187Z,12.57
2023-04-16T23:20:02.156Z,14.77
2023-04-16T23:22:04.605Z,12.02
2023-04-16T23:24:06.891Z,13.07
2023-04-16T23:26:08.581Z,12.43
2023-04-16T23:28:10.964Z,11.68
2023-04-16T23:30:12.965Z,12.82
2023-04-16T23:32:14.638Z,12.35
2023-04-16T23:34:16.437Z,11.40
2023-04-16T23:36:20.917Z,12.60
2023-04-16T23:38:22.658Z,12.20
2023-04-16T23:40:24.407Z,12.57
2023-04-16T23:42:26.118Z,12.50
2023-04-16T23:44:27.802Z,12.90
2023-04-16T23:46:29.604Z,12.55
2023-04-16T23:48:31.324Z,11.30
2023-04-16T23:50:33.028Z,12.38
2023-04-16T23:52:34.669Z,11.30
2023-04-16T23:54:36.405Z,13.05
2023-04-16T23:56:38.120Z,12.90
2023-04-16T23:58:40.022Z,12.82
